Flight Track Log - Related Links

Times and Time Zones

All times are in EDT time to prevent confusion due to time zone crossing. See the AAL2007 flight status page for this flight to view local times or setup timezone preferences in your user account.

Time Position Orientation Groundspeed Altitude Reporting Facility
EDT Latitude Longitude Course Direction KTS MPH feet Rate Location/Type
Fri 06:43:32 PM 42.0167 -87.8667 207° Southwest 160 184 2,300  Level Chicago TRACON
Fri 06:44:26 PM 41.9833 -87.8167 132° Southeast 219 252 4,000 2,400 Climbing Chicago TRACON
Fri 06:45:00 PM 41.7074 -88.1812 201° Southwest  Level Estimated
Fri 06:45:32 PM 41.9167 -87.8333 191° South 267 307 7,100  Level Chicago TRACON
Fri 06:46:00 PM 41.6158 -88.2722 197° South  Level Estimated
Fri 06:47:00 PM 41.5241 -88.3630 194° South  Level Estimated
Fri 06:47:16 PM 41.8028 -87.9206 210° Southwest 277 319 11,800  Level Chicago Center
Fri 06:48:00 PM 41.4324 -88.4535 207° Southwest  Level Estimated
Fri 06:48:18 PM 41.7297 -87.9672 205° Southwest 290 334 14,100  Level Chicago Center
Fri 06:49:20 PM 41.6506 -88.0189 206° Southwest 316 364 15,400 1,161 Climbing Chicago Center
Fri 06:50:22 PM 41.5619 -88.0772 206° Southwest 355 409 16,500 1,887 Climbing Chicago Center
Fri 06:51:24 PM 41.4503 -88.1503 206° Southwest 383 441 19,300 2,468 Climbing Chicago Center
Fri 06:52:26 PM 41.3608 -88.2008 203° Southwest 364 419 21,600 1,742 Climbing Chicago Center
Fri 06:53:28 PM 41.2653 -88.2425 198° South 365 420 22,900 1,355 Climbing Chicago Center
Fri 06:54:30 PM 41.1675 -88.2878 199° South 374 430 24,400 1,366 Climbing Chicago Center
Fri 06:55:31 PM 41.0472 -88.3431 199° South 383 441 25,700 1,220 Climbing Chicago Center
Fri 06:56:33 PM 40.9433 -88.3881 198° South 391 450 26,900 1,016 Climbing Chicago Center
Fri 06:57:35 PM 40.8372 -88.4353 199° South 399 459 27,800 726 Climbing Chicago Center
Fri 06:58:37 PM 40.7361 -88.5044 207° Southwest 430 495 28,400 532 Climbing Chicago Center
Fri 06:59:39 PM 40.6464 -88.6164 223° Southwest 446 513 28,900 435 Climbing Chicago Center
Fri 07:00:41 PM 40.5472 -88.7211 219° Southwest 454 522 29,300 1,210 Climbing Chicago Center
Fri 07:01:43 PM 40.4481 -88.8247 219° Southwest 445 512 31,400 1,548 Climbing Chicago Center
Fri 07:02:45 PM 40.3561 -88.9236 219° Southwest 430 495 32,500 919 Climbing Chicago Center
Fri 07:03:47 PM 40.2472 -89.0394 219° Southwest 420 483 33,300 726 Climbing Chicago Center
Fri 07:04:49 PM 40.1553 -89.1375 219° Southwest 422 486 34,000 339 Climbing Chicago Center
Fri 07:05:51 PM 40.0625 -89.2339 219° Southwest 425 489 34,000  Level Chicago Center
Fri 07:06:46 PM 39.9881 -89.3150 220° Southwest 426 490 34,000  Level Kansas City Center
Fri 07:07:48 PM 39.8767 -89.4319 219° Southwest 427 491 34,000  Level Kansas City Center
Fri 07:08:50 PM 39.7839 -89.5283 219° Southwest 426 490 34,000  Level Kansas City Center
Fri 07:09:52 PM 39.6956 -89.6214 219° Southwest 429 494 34,000  Level Kansas City Center
Fri 07:10:54 PM 39.6031 -89.7172 219° Southwest 429 494 34,000  Level Kansas City Center
Fri 07:11:56 PM 39.5114 -89.8133 219° Southwest 426 490 34,000  Level Kansas City Center
Fri 07:12:58 PM 39.3994 -89.9283 218° Southwest 429 494 34,000  Level Kansas City Center
Fri 07:14:00 PM 39.3067 -90.0256 219° Southwest 431 496 34,000  Level Kansas City Center
Fri 07:15:02 PM 39.2144 -90.1211 219° Southwest 428 493 34,000  Level Kansas City Center
Fri 07:16:04 PM 39.1214 -90.2164 218° Southwest 429 494 34,000  Level Kansas City Center
Fri 07:17:06 PM 39.0286 -90.3125 219° Southwest 430 495 34,000  Level Kansas City Center
Fri 07:18:07 PM 38.9311 -90.4117 218° Southwest 432 497 34,000  Level Kansas City Center
Fri 07:19:09 PM 38.8183 -90.5319 220° Southwest 443 510 34,000  Level Kansas City Center
Fri 07:20:11 PM 38.7256 -90.6369 221° Southwest 442 509 34,000  Level Kansas City Center
Fri 07:21:13 PM 38.6456 -90.7308 223° Southwest 443 510 34,000  Level Kansas City Center
Fri 07:22:15 PM 38.5544 -90.8350 222° Southwest 445 512 34,000  Level Kansas City Center
Fri 07:23:17 PM 38.4444 -90.9614 222° Southwest 445 512 34,000  Level Kansas City Center
Fri 07:24:19 PM 38.3528 -91.0661 222° Southwest 445 512 34,000  Level Kansas City Center
Fri 07:25:21 PM 38.2608 -91.1703 222° Southwest 443 510 34,000  Level Kansas City Center
Fri 07:26:23 PM 38.1681 -91.2753 222° Southwest 446 513 34,000  Level Kansas City Center
Fri 07:27:25 PM 38.0594 -91.3969 221° Southwest 442 509 34,000  Level Kansas City Center
Fri 07:28:27 PM 37.9694 -91.4983 222° Southwest 433 498 34,000  Level Kansas City Center
Fri 07:29:29 PM 37.8808 -91.5986 222° Southwest 428 493 34,000  Level Kansas City Center
Fri 07:30:30 PM 37.7942 -91.6986 222° Southwest 424 488 34,000  Level Kansas City Center
Fri 07:31:32 PM 37.7039 -91.7972 221° Southwest 423 487 34,000  Level Kansas City Center
Fri 07:32:34 PM 37.6147 -91.8969 222° Southwest 425 489 34,000  Level Kansas City Center
Fri 07:33:36 PM 37.5233 -92.0003 222° Southwest 432 497 34,000  Level Kansas City Center
Fri 07:34:38 PM 37.4336 -92.1000 221° Southwest 429 494 34,000  Level Kansas City Center
Fri 07:35:40 PM 37.3453 -92.1978 221° Southwest 423 487 34,000 -581 Level Kansas City Center
Fri 07:36:42 PM 37.2542 -92.2961 221° Southwest 425 489 32,800 -1,463 Descending Kansas City Center
Fri 07:37:43 PM 37.1442 -92.4156 221° Southwest 430 495 31,000 -1,317 Descending Kansas City Center
Fri 07:38:45 PM 37.0531 -92.5156 221° Southwest 432 497 30,100 -484 Descending Kansas City Center
Fri 07:39:47 PM 36.9625 -92.6139 221° Southwest 428 493 30,000 -48 Descending Kansas City Center
Fri 07:40:49 PM 36.8717 -92.7119 221° Southwest 428 493 30,000  Level Kansas City Center
Fri 07:41:20 PM 36.8211 -92.7697 222° Southwest 444 511 30,000  Level Memphis Center
Fri 07:42:20 PM 36.7317 -92.8631 220° Southwest 437 503 30,000  Level Memphis Center
Fri 07:43:20 PM 36.6400 -92.9636 221° Southwest 437 503 30,000  Level Memphis Center
Fri 07:44:20 PM 36.5592 -93.0461 219° Southwest 431 496 30,000  Level Memphis Center
Fri 07:45:20 PM 36.4653 -93.1489 221° Southwest 438 504 30,000  Level Memphis Center
Fri 07:46:20 PM 36.3733 -93.2436 220° Southwest 438 504 30,000  Level Memphis Center
Fri 07:47:20 PM 36.2728 -93.3533 221° Southwest 443 510 30,000  Level Memphis Center
Fri 07:48:20 PM 36.1786 -93.4503 220° Southwest 443 510 30,000  Level Memphis Center
Fri 07:49:20 PM 36.0844 -93.5469 220° Southwest 438 504 30,000  Level Memphis Center
Fri 07:50:20 PM 35.9925 -93.6433 220° Southwest 438 504 30,000  Level Memphis Center
Fri 07:51:20 PM 35.8981 -93.7419 220° Southwest 438 504 30,000  Level Memphis Center
Fri 07:52:20 PM 35.8017 -93.8353 218° Southwest 438 504 30,000  Level Memphis Center
Fri 07:53:20 PM 35.6972 -93.9153 212° Southwest 438 504 30,000  Level Memphis Center
Fri 07:54:20 PM 35.5925 -94.0028 214° Southwest 449 517 30,000  Level Memphis Center
Fri 07:55:20 PM 35.4878 -94.0850 213° Southwest 456 525 30,000  Level Memphis Center
Fri 07:56:20 PM 35.3853 -94.1669 213° Southwest 451 519 30,000  Level Memphis Center
Fri 07:57:20 PM 35.2825 -94.2486 213° Southwest 446 513 30,000  Level Memphis Center
Fri 07:58:20 PM 35.1797 -94.3328 214° Southwest 446 513 30,000  Level Memphis Center
Fri 07:59:51 PM 35.0375 -94.4467 213° Southwest 443 510 30,000  Level Fort Worth Center
Fri 08:00:51 PM 34.9331 -94.5289 213° Southwest 437 503 30,000  Level Fort Worth Center
Fri 08:01:51 PM 34.8286 -94.6133 214° Southwest 447 514 30,000  Level Fort Worth Center
Fri 08:02:51 PM 34.7261 -94.6925 212° Southwest 447 514 30,000  Level Fort Worth Center
Fri 08:03:51 PM 34.6256 -94.7739 214° Southwest 447 514 30,000  Level Fort Worth Center
Fri 08:04:51 PM 34.5228 -94.8503 211° Southwest 447 514 30,000  Level Fort Worth Center
Fri 08:05:51 PM 34.4200 -94.9289 212° Southwest 447 514 30,000  Level Fort Worth Center
Fri 08:06:51 PM 34.3153 -95.0097 213° Southwest 452 520 30,000  Level Fort Worth Center
Fri 08:07:51 PM 34.1906 -95.0358 190° South 447 514 30,000  Level Fort Worth Center
Fri 08:08:51 PM 34.0544 -95.0144 173° South 458 527 30,000  Level Fort Worth Center
Fri 08:09:51 PM 33.9269 -95.0028 176° South 463 533 30,000  Level Fort Worth Center
Fri 08:10:52 PM 33.8242 -95.0833 213° Southwest 428 493 30,000  Level Fort Worth Center
Fri 08:11:51 PM 33.7275 -95.1683 216° Southwest 428 493 30,000  Level Fort Worth Center
Fri 08:12:51 PM 33.6289 -95.2531 216° Southwest 434 499 30,000  Level Fort Worth Center
Fri 08:13:51 PM 33.5344 -95.3400 218° Southwest 434 499 30,000  Level Fort Worth Center
Fri 08:14:51 PM 33.4378 -95.4269 217° Southwest 440 506 30,000  Level Fort Worth Center
Fri 08:15:51 PM 33.3389 -95.5164 217° Southwest 440 506 30,000  Level Fort Worth Center
Fri 08:16:51 PM 33.2339 -95.6103 217° Southwest 439 505 30,000  Level Fort Worth Center
Fri 08:17:51 PM 33.1472 -95.6867 216° Southwest 439 505 30,000  Level Fort Worth Center
Fri 08:18:51 PM 33.0419 -95.7803 217° Southwest 439 505 30,000  Level Fort Worth Center
Fri 08:19:51 PM 32.9553 -95.8561 216° Southwest 439 505 30,000  Level Fort Worth Center
Fri 08:20:51 PM 32.8500 -95.9494 217° Southwest 431 496 30,000  Level Fort Worth Center
Fri 08:21:51 PM 32.7631 -96.0250 216° Southwest 431 496 30,000  Level Fort Worth Center
Fri 08:22:51 PM 32.6556 -96.1181 216° Southwest 431 496 30,000  Level Fort Worth Center
Fri 08:23:51 PM 32.5686 -96.1931 216° Southwest 431 496 30,000  Level Fort Worth Center
Fri 08:24:51 PM 32.4608 -96.2833 215° Southwest 431 496 30,000  Level Fort Worth Center
Fri 08:25:51 PM 32.3656 -96.3681 217° Southwest 431 496 30,000  Level Fort Worth Center
Fri 08:26:51 PM 32.2681 -96.4528 216° Southwest 436 502 30,000  Level Fort Worth Center
Fri 08:27:51 PM 32.1706 -96.5347 215° Southwest 436 502 30,000 -550 Level Fort Worth Center
Fri 08:28:51 PM 32.0667 -96.6092 211° Southwest 436 502 28,900 -1,350 Descending Fort Worth Center
Fri 08:29:51 PM 31.9608 -96.6836 211° Southwest 447 514 27,300 -1,600 Descending Fort Worth Center
Fri 08:30:51 PM 31.8567 -96.7556 210° Southwest 447 514 25,700 -1,550 Descending Fort Worth Center
Fri 08:31:51 PM 31.7547 -96.8294 212° Southwest 435 501 24,200 -1,350 Descending Fort Worth Center
Fri 08:32:51 PM 31.6528 -96.8983 210° Southwest 430 495 23,000 -891 Descending Fort Worth Center
Fri 08:33:32 PM 31.6031 -96.9344 212° Southwest 416 479 22,700 -588 Descending Houston Center
Fri 08:34:33 PM 31.4892 -97.0144 211° Southwest 406 467 22,000 -341 Descending Houston Center
Fri 08:35:35 PM 31.3906 -97.0825 211° Southwest 407 468 22,000 -919 Level Houston Center
Fri 08:36:37 PM 31.2919 -97.1500 210° Southwest 407 468 20,100 -1,887 Descending Houston Center
Fri 08:37:39 PM 31.1942 -97.2153 210° Southwest 402 463 18,100 -1,790 Descending Houston Center
Fri 08:38:41 PM 31.0850 -97.2564 198° South 408 470 16,400 -1,790 Descending Houston Center
Fri 08:39:43 PM 30.9800 -97.2983 199° South 405 466 14,400 -1,597 Descending Houston Center
Fri 08:40:45 PM 30.8617 -97.3433 198° South 398 458 13,100 -927 Descending Houston Center
Fri 08:41:46 PM 30.7628 -97.3819 199° South 377 434 12,500 -976 Descending Houston Center
Fri 08:42:48 PM 30.6717 -97.4156 198° South 348 400 11,100 -1,355 Descending Houston Center
Fri 08:43:50 PM 30.5886 -97.4489 199° South 320 368 9,700 -1,306 Descending Houston Center
Fri 08:44:52 PM 30.5053 -97.4814 199° South 313 360 8,400 -823 Descending Houston Center
Fri 08:45:54 PM 30.4236 -97.5125 198° South 308 354 8,000 -484 Descending Houston Center
Fri 08:46:56 PM 30.3428 -97.5344 193° South 299 344 7,400 -1,113 Descending Houston Center
Fri 08:47:58 PM 30.2492 -97.5392 182° South 286 329 5,700 -1,610 Descending Houston Center
Fri 08:48:59 PM 30.1697 -97.5458 184° South 284 327 4,100 -1,171 Descending Houston Center
Fri 08:50:01 PM 30.0964 -97.5522 184° South 267 307 3,300 -774 Descending Houston Center

Login

Don't have an account? Register now (free) for customized features, flight alerts, and more!